Time;durP1;ratioP1;P1;durP2;ratioP2;P2;SDS_P1;SDS_P2;PMS_P1;PMS_P2;Temp;Humidity;BMP_temperature;BMP_pressure;BME280_temperature;BME280_humidity;BME280_pressure;Samples;Min_cycle;Max_cycle;Signal;HPM_P1;HPM_P2
2022/02/17 00:02:22;;;;;;;22.77;5.78;;;;;;;;;;5025140;28;20293;-65
2022/02/17 00:04:48;;;;;;;27.00;5.70;;;;;;;;;;5049383;28;20125;-65
2022/02/17 00:07:14;;;;;;;23.42;5.35;;;;;;;;;;5022749;28;20042;-69
2022/02/17 00:09:40;;;;;;;26.88;5.38;;;;;;;;;;5049041;28;20522;-68
2022/02/17 00:12:07;;;;;;;30.02;6.13;;;;;;;;;;5053326;28;20464;-70
2022/02/17 00:14:33;;;;;;;21.85;4.75;;;;;;;;;;5028783;28;20026;-65
2022/02/17 00:16:59;;;;;;;27.80;5.95;;;;;;;;;;5043889;28;20048;-69
2022/02/17 00:19:25;;;;;;;27.50;5.95;;;;;;;;;;5039036;28;20068;-66
2022/02/17 00:21:51;;;;;;;26.00;5.88;;;;;;;;;;5074306;28;20017;-67
2022/02/17 00:24:17;;;;;;;28.77;5.35;;;;;;;;;;5070419;28;20025;-65
2022/02/17 00:26:44;;;;;;;32.45;6.18;;;;;;;;;;5055424;28;20112;-70
2022/02/17 00:29:10;;;;;;;25.13;5.78;;;;;;;;;;5054919;28;20040;-65
2022/02/17 00:31:36;;;;;;;26.50;5.80;;;;;;;;;;5037065;28;20112;-67
2022/02/17 00:34:02;;;;;;;25.25;5.60;;;;;;;;;;5054919;28;20032;-67
2022/02/17 00:36:28;;;;;;;29.13;5.68;;;;;;;;;;5054845;28;20049;-66
2022/02/17 00:38:54;;;;;;;21.48;4.95;;;;;;;;;;5054949;28;20473;-63
2022/02/17 00:41:21;;;;;;;27.63;6.20;;;;;;;;;;5051938;28;20025;-63
2022/02/17 00:43:47;;;;;;;28.25;5.28;;;;;;;;;;5046583;28;20034;-66
2022/02/17 00:46:13;;;;;;;18.73;4.80;;;;;;;;;;5050643;28;20670;-65
2022/02/17 00:48:39;;;;;;;20.60;5.20;;;;;;;;;;5044169;28;20412;-68
2022/02/17 00:51:05;;;;;;;19.92;4.45;;;;;;;;;;5020697;28;20030;-65
2022/02/17 00:53:32;;;;;;;22.70;4.88;;;;;;;;;;5042634;28;20075;-65
2022/02/17 00:55:58;;;;;;;22.45;5.03;;;;;;;;;;5048739;28;20025;-66
2022/02/17 00:58:24;;;;;;;20.40;4.60;;;;;;;;;;5030911;28;20123;-64
2022/02/17 01:00:50;;;;;;;18.05;4.03;;;;;;;;;;5028596;28;20120;-69
2022/02/17 01:03:19;;;;;;;18.45;3.92;;;;;;;;;;5046489;28;20412;-70
2022/02/17 01:05:45;;;;;;;23.85;4.68;;;;;;;;;;5046074;28;20060;-70
2022/02/17 01:08:11;;;;;;;17.50;4.15;;;;;;;;;;5048247;28;20053;-66
2022/02/17 01:10:37;;;;;;;15.77;3.80;;;;;;;;;;5042588;28;20060;-64
2022/02/17 01:13:04;;;;;;;16.58;3.28;;;;;;;;;;5037637;28;20059;-65
2022/02/17 01:15:30;;;;;;;13.55;3.95;;;;;;;;;;5047702;28;20096;-64
2022/02/17 01:17:56;;;;;;;16.27;3.65;;;;;;;;;;5048888;28;20499;-66
2022/02/17 01:20:22;;;;;;;15.60;3.72;;;;;;;;;;5058378;28;20021;-65
2022/02/17 01:22:49;;;;;;;18.55;4.15;;;;;;;;;;5073989;28;20023;-66
2022/02/17 01:25:15;;;;;;;16.40;3.85;;;;;;;;;;5067405;28;20023;-66
2022/02/17 01:27:45;;;;;;;13.18;3.50;;;;;;;;;;5036145;28;20090;-65
2022/02/17 01:30:11;;;;;;;24.63;4.25;;;;;;;;;;5067119;28;20496;-65
2022/02/17 01:32:37;;;;;;;16.75;3.40;;;;;;;;;;5074261;28;20024;-63
2022/02/17 01:35:03;;;;;;;17.80;3.65;;;;;;;;;;5073896;28;20036;-64
2022/02/17 01:37:29;;;;;;;17.55;3.88;;;;;;;;;;5058297;28;20045;-70
2022/02/17 01:39:55;;;;;;;16.88;3.10;;;;;;;;;;5044528;28;20094;-68
2022/02/17 01:42:21;;;;;;;19.02;3.45;;;;;;;;;;5026763;28;20017;-69
2022/02/17 01:44:51;;;;;;;19.02;3.83;;;;;;;;;;5026871;28;20074;-64
2022/02/17 01:47:17;;;;;;;18.02;3.70;;;;;;;;;;5041538;28;20558;-66
2022/02/17 01:49:46;;;;;;;18.33;4.00;;;;;;;;;;5042324;28;20097;-68
2022/02/17 01:52:12;;;;;;;17.25;3.92;;;;;;;;;;5036200;28;20067;-65
2022/02/17 01:54:39;;;;;;;18.73;4.13;;;;;;;;;;5043950;28;20082;-66
2022/02/17 01:57:07;;;;;;;21.85;4.07;;;;;;;;;;5065997;28;20395;-70
2022/02/17 01:59:33;;;;;;;17.90;4.05;;;;;;;;;;5073545;28;20020;-71
2022/02/17 02:02:00;;;;;;;28.00;4.60;;;;;;;;;;5052681;28;20047;-73
2022/02/17 02:04:26;;;;;;;19.55;4.00;;;;;;;;;;5038816;28;20026;-71
2022/02/17 02:06:52;;;;;;;23.33;4.40;;;;;;;;;;5038651;28;20535;-67
2022/02/17 02:09:18;;;;;;;33.30;4.43;;;;;;;;;;5041900;28;20071;-70
2022/02/17 02:11:47;;;;;;;24.00;4.32;;;;;;;;;;5038597;28;20091;-64
2022/02/17 02:14:14;;;;;;;28.27;4.10;;;;;;;;;;5037094;28;20076;-68
2022/02/17 02:16:40;;;;;;;21.98;4.43;;;;;;;;;;5042851;28;20091;-70
2022/02/17 02:19:06;;;;;;;23.80;4.65;;;;;;;;;;5051801;28;20021;-72
2022/02/17 02:21:32;;;;;;;29.17;5.10;;;;;;;;;;5053931;28;20515;-70
2022/02/17 02:23:58;;;;;;;37.95;5.15;;;;;;;;;;5070334;28;20035;-70
2022/02/17 02:26:24;;;;;;;26.13;4.20;;;;;;;;;;5035256;28;20032;-66
2022/02/17 02:28:50;;;;;;;29.20;4.93;;;;;;;;;;5052990;28;20049;-63
2022/02/17 02:31:17;;;;;;;29.33;5.07;;;;;;;;;;5053402;28;20017;-64
2022/02/17 02:33:44;;;;;;;25.52;4.53;;;;;;;;;;5053165;28;20036;-71
2022/02/17 02:36:10;;;;;;;29.77;4.90;;;;;;;;;;5052980;28;20059;-70
2022/02/17 02:38:36;;;;;;;29.75;5.50;;;;;;;;;;5053560;28;20050;-72
2022/02/17 02:41:02;;;;;;;27.60;4.97;;;;;;;;;;5035229;28;20021;-70
2022/02/17 02:43:28;;;;;;;20.70;4.78;;;;;;;;;;5052827;28;20387;-65
2022/02/17 02:45:54;;;;;;;33.10;5.05;;;;;;;;;;5052985;28;20025;-66
2022/02/17 02:48:20;;;;;;;31.63;6.20;;;;;;;;;;5068451;28;20024;-66
2022/02/17 02:50:46;;;;;;;22.40;5.07;;;;;;;;;;5073311;28;20464;-71
2022/02/17 02:53:14;;;;;;;28.42;5.15;;;;;;;;;;5073099;28;20100;-68
2022/02/17 02:55:42;;;;;;;24.75;4.57;;;;;;;;;;5073256;28;20021;-68
2022/02/17 02:58:08;;;;;;;34.15;5.45;;;;;;;;;;5055067;28;20037;-68
2022/02/17 03:00:34;;;;;;;18.88;4.55;;;;;;;;;;5055110;28;20025;-64
2022/02/17 03:03:00;;;;;;;28.95;5.55;;;;;;;;;;5073161;28;20497;-67
2022/02/17 03:05:26;;;;;;;21.92;4.60;;;;;;;;;;5072953;28;20016;-65
2022/02/17 03:07:54;;;;;;;23.30;4.93;;;;;;;;;;5055424;28;20032;-63
2022/02/17 03:10:21;;;;;;;23.17;4.95;;;;;;;;;;5073746;28;20029;-67
2022/02/17 03:12:47;;;;;;;27.92;5.18;;;;;;;;;;5073035;28;20114;-68
2022/02/17 03:15:14;;;;;;;30.08;5.43;;;;;;;;;;5065298;28;20017;-72
2022/02/17 03:17:40;;;;;;;26.55;4.97;;;;;;;;;;5053040;28;20040;-68
2022/02/17 03:20:09;;;;;;;26.08;5.22;;;;;;;;;;5075223;28;20387;-63
2022/02/17 03:22:36;;;;;;;31.85;5.13;;;;;;;;;;5071276;28;20024;-68
2022/02/17 03:25:03;;;;;;;30.85;5.90;;;;;;;;;;5064502;28;20036;-65
2022/02/17 03:27:29;;;;;;;28.10;5.43;;;;;;;;;;5056401;28;20021;-64
2022/02/17 03:29:55;;;;;;;31.52;6.10;;;;;;;;;;5056083;28;20021;-70
2022/02/17 03:32:21;;;;;;;30.25;6.10;;;;;;;;;;5050804;28;20053;-64
2022/02/17 03:34:47;;;;;;;26.13;5.00;;;;;;;;;;5058090;28;20031;-64
2022/02/17 03:37:13;;;;;;;24.65;5.45;;;;;;;;;;5057773;28;20052;-64
2022/02/17 03:39:39;;;;;;;24.23;5.28;;;;;;;;;;5058135;28;20456;-64
2022/02/17 03:42:06;;;;;;;28.00;5.85;;;;;;;;;;5073402;28;20078;-73
2022/02/17 03:44:32;;;;;;;25.67;5.20;;;;;;;;;;5037958;28;20029;-65
2022/02/17 03:46:58;;;;;;;24.65;5.03;;;;;;;;;;5059755;28;20031;-63
2022/02/17 03:49:24;;;;;;;24.77;5.00;;;;;;;;;;5076202;28;20024;-64
2022/02/17 03:51:50;;;;;;;28.80;5.32;;;;;;;;;;5058016;28;20093;-64
2022/02/17 03:54:16;;;;;;;31.00;6.43;;;;;;;;;;5075999;28;20025;-64
2022/02/17 03:56:42;;;;;;;25.33;5.20;;;;;;;;;;5076120;28;20031;-63
2022/02/17 03:59:09;;;;;;;25.05;5.45;;;;;;;;;;5076373;28;20024;-70
2022/02/17 04:01:35;;;;;;;27.70;5.70;;;;;;;;;;5075803;28;20525;-71
2022/02/17 04:04:02;;;;;;;22.73;4.68;;;;;;;;;;5070503;28;20029;-63
2022/02/17 04:06:28;;;;;;;24.67;5.13;;;;;;;;;;5055869;28;20041;-67
2022/02/17 04:08:54;;;;;;;26.08;5.15;;;;;;;;;;5058169;28;20028;-66
2022/02/17 04:11:20;;;;;;;31.30;6.68;;;;;;;;;;5057685;28;20048;-64
2022/02/17 04:13:48;;;;;;;24.80;5.00;;;;;;;;;;5075770;28;20029;-64
2022/02/17 04:16:15;;;;;;;32.33;6.07;;;;;;;;;;5075532;28;20022;-67
2022/02/17 04:18:41;;;;;;;25.60;5.68;;;;;;;;;;5075911;28;20051;-70
2022/02/17 04:21:08;;;;;;;25.98;4.53;;;;;;;;;;5066414;28;20035;-68
2022/02/17 04:23:34;;;;;;;26.70;5.03;;;;;;;;;;5075251;28;20647;-66
2022/02/17 04:26:00;;;;;;;30.73;6.25;;;;;;;;;;5075835;28;20036;-62
2022/02/17 04:28:26;;;;;;;25.95;4.97;;;;;;;;;;5075522;28;20039;-64
2022/02/17 04:30:52;;;;;;;25.33;5.68;;;;;;;;;;5074743;28;20013;-63
2022/02/17 04:33:19;;;;;;;23.38;4.43;;;;;;;;;;5074840;28;20051;-69
2022/02/17 04:35:45;;;;;;;23.98;4.15;;;;;;;;;;5075244;28;20094;-65
2022/02/17 04:38:11;;;;;;;18.92;4.60;;;;;;;;;;5075019;28;20055;-64
2022/02/17 04:43:21;;;;;;;23.20;4.75;;;;;;;;;;5062167;28;20044;-65
2022/02/17 04:45:47;;;;;;;23.15;4.80;;;;;;;;;;5055415;28;20380;-67
2022/02/17 04:48:13;;;;;;;23.75;5.03;;;;;;;;;;5055710;28;20117;-70
2022/02/17 04:50:39;;;;;;;24.35;5.20;;;;;;;;;;5055244;28;20021;-70
2022/02/17 04:53:05;;;;;;;20.75;4.90;;;;;;;;;;5054953;28;20029;-63
2022/02/17 04:55:32;;;;;;;28.70;5.57;;;;;;;;;;5063816;28;20033;-64
2022/02/17 04:57:57;;;;;;;23.27;5.15;;;;;;;;;;5075196;28;20033;-66
2022/02/17 05:00:23;;;;;;;30.67;5.10;;;;;;;;;;5074906;28;20100;-66
2022/02/17 05:02:49;;;;;;;25.13;4.78;;;;;;;;;;5056654;28;20036;-67
2022/02/17 05:05:16;;;;;;;25.08;5.18;;;;;;;;;;5056761;28;20017;-69
2022/02/17 05:07:41;;;;;;;24.67;5.32;;;;;;;;;;5074825;28;20111;-67
2022/02/17 05:10:08;;;;;;;27.52;5.72;;;;;;;;;;5074541;28;20104;-67
2022/02/17 05:12:34;;;;;;;24.08;5.00;;;;;;;;;;5057078;28;20389;-64
2022/02/17 05:15:00;;;;;;;22.38;5.63;;;;;;;;;;5074831;28;20491;-63
2022/02/17 05:17:26;;;;;;;22.00;5.20;;;;;;;;;;5074655;28;20033;-64
2022/02/17 05:19:52;;;;;;;26.58;5.25;;;;;;;;;;5074665;28;20028;-65
2022/02/17 05:22:18;;;;;;;25.15;5.72;;;;;;;;;;5068204;28;20029;-67
2022/02/17 05:24:43;;;;;;;22.15;4.93;;;;;;;;;;5047056;28;20053;-64
2022/02/17 05:27:09;;;;;;;20.20;4.38;;;;;;;;;;5036565;28;20063;-66
2022/02/17 05:29:35;;;;;;;22.60;4.88;;;;;;;;;;5054484;28;20029;-63
2022/02/17 05:32:01;;;;;;;20.80;5.28;;;;;;;;;;5036103;28;20460;-63
2022/02/17 05:34:27;;;;;;;21.65;4.38;;;;;;;;;;5036350;28;20033;-65
2022/02/17 05:36:53;;;;;;;18.48;4.72;;;;;;;;;;5053894;28;20480;-67
2022/02/17 05:39:19;;;;;;;18.52;3.92;;;;;;;;;;5054080;28;20025;-71
2022/02/17 05:41:45;;;;;;;18.85;4.90;;;;;;;;;;5052745;28;20431;-65
2022/02/17 05:44:14;;;;;;;23.02;4.50;;;;;;;;;;5053695;28;20021;-65
2022/02/17 05:46:40;;;;;;;42.53;4.70;;;;;;;;;;5054051;28;20016;-65
2022/02/17 05:49:06;;;;;;;20.90;5.05;;;;;;;;;;5019851;28;20029;-64
2022/02/17 05:51:32;;;;;;;21.15;4.70;;;;;;;;;;5054013;28;20464;-64
2022/02/17 05:53:58;;;;;;;21.23;4.13;;;;;;;;;;5065693;28;20368;-65
2022/02/17 05:56:24;;;;;;;21.88;4.35;;;;;;;;;;5073620;28;20515;-72
2022/02/17 05:58:50;;;;;;;15.85;3.60;;;;;;;;;;5055642;28;20039;-63
2022/02/17 06:01:16;;;;;;;15.77;4.43;;;;;;;;;;5073435;28;20020;-67
2022/02/17 06:03:42;;;;;;;17.77;4.50;;;;;;;;;;5073601;28;20039;-65
2022/02/17 06:06:08;;;;;;;21.30;4.13;;;;;;;;;;5073741;28;20025;-65
2022/02/17 06:08:34;;;;;;;12.80;3.65;;;;;;;;;;5073593;28;20025;-64
2022/02/17 06:11:00;;;;;;;15.27;4.35;;;;;;;;;;5057202;28;20120;-64
2022/02/17 06:13:26;;;;;;;16.30;4.10;;;;;;;;;;5036215;28;20017;-63
2022/02/17 06:15:52;;;;;;;18.23;3.80;;;;;;;;;;5046810;28;20350;-64
2022/02/17 06:18:18;;;;;;;21.75;4.43;;;;;;;;;;5033756;28;20069;-68
2022/02/17 06:20:44;;;;;;;18.25;4.15;;;;;;;;;;5037819;28;20471;-64
2022/02/17 06:23:10;;;;;;;22.38;4.63;;;;;;;;;;5073390;28;20028;-64
2022/02/17 06:25:36;;;;;;;15.05;4.18;;;;;;;;;;5057995;28;20021;-65
2022/02/17 06:28:03;;;;;;;23.45;4.50;;;;;;;;;;5056255;28;20085;-73
2022/02/17 06:30:30;;;;;;;15.90;4.18;;;;;;;;;;5036650;28;20026;-67
2022/02/17 06:32:56;;;;;;;16.33;3.65;;;;;;;;;;5033262;28;20029;-66
2022/02/17 06:35:24;;;;;;;16.13;3.95;;;;;;;;;;5033715;28;20029;-67
2022/02/17 06:37:50;;;;;;;20.67;4.40;;;;;;;;;;5053183;28;20072;-69
2022/02/17 06:40:16;;;;;;;38.63;4.15;;;;;;;;;;5034914;28;20025;-68
2022/02/17 06:42:42;;;;;;;34.05;4.47;;;;;;;;;;5012012;28;20041;-68
2022/02/17 06:45:09;;;;;;;33.30;5.03;;;;;;;;;;5038221;28;20023;-69
2022/02/17 06:47:35;;;;;;;30.20;5.20;;;;;;;;;;5033740;28;20060;-68
2022/02/17 06:50:01;;;;;;;38.50;5.05;;;;;;;;;;5033089;28;20018;-70
2022/02/17 06:52:27;;;;;;;29.80;4.15;;;;;;;;;;5033031;28;20396;-69
2022/02/17 06:54:53;;;;;;;37.30;4.70;;;;;;;;;;5019346;28;20759;-67
2022/02/17 06:57:23;;;;;;;17.65;3.72;;;;;;;;;;5044525;28;20040;-71
2022/02/17 06:59:50;;;;;;;17.55;4.00;;;;;;;;;;5051683;28;20021;-67
2022/02/17 07:02:24;;;;;;;34.50;4.40;;;;;;;;;;5040064;28;20051;-66
2022/02/17 07:04:50;;;;;;;18.40;4.68;;;;;;;;;;5032072;28;20033;-72
2022/02/17 07:07:16;;;;;;;18.15;3.40;;;;;;;;;;5044590;28;20080;-68
2022/02/17 07:09:43;;;;;;;19.10;4.35;;;;;;;;;;5035820;28;20481;-68
2022/02/17 07:12:09;;;;;;;13.63;3.13;;;;;;;;;;5019657;28;20022;-77
2022/02/17 07:14:35;;;;;;;20.65;3.85;;;;;;;;;;5019061;28;20029;-69
2022/02/17 07:17:02;;;;;;;29.20;4.00;;;;;;;;;;5018297;28;20343;-64
2022/02/17 07:19:28;;;;;;;16.02;3.25;;;;;;;;;;5023308;28;20032;-64
2022/02/17 07:21:54;;;;;;;17.98;3.35;;;;;;;;;;5041397;28;20028;-67
2022/02/17 07:24:20;;;;;;;32.13;3.92;;;;;;;;;;5056886;28;20029;-68
2022/02/17 07:26:47;;;;;;;19.88;4.18;;;;;;;;;;5053238;28;20436;-68
2022/02/17 07:29:14;;;;;;;14.77;3.55;;;;;;;;;;5040524;28;20022;-71
2022/02/17 07:31:40;;;;;;;16.65;3.42;;;;;;;;;;5037448;28;20108;-72
2022/02/17 07:34:06;;;;;;;25.70;3.45;;;;;;;;;;5055806;28;20090;-69
2022/02/17 07:36:33;;;;;;;20.88;3.83;;;;;;;;;;5055700;28;20567;-67
2022/02/17 07:38:59;;;;;;;12.68;3.45;;;;;;;;;;5056351;28;20658;-66
2022/02/17 07:41:25;;;;;;;19.48;4.00;;;;;;;;;;5055841;28;20796;-66
2022/02/17 07:43:51;;;;;;;25.05;3.72;;;;;;;;;;5055831;28;20477;-70
2022/02/17 07:46:17;;;;;;;14.98;3.17;;;;;;;;;;5032225;28;20051;-68
2022/02/17 07:48:44;;;;;;;9.27;2.63;;;;;;;;;;5036154;28;20047;-72
2022/02/17 07:51:10;;;;;;;11.65;3.00;;;;;;;;;;5051583;28;20051;-71
2022/02/17 07:53:36;;;;;;;12.20;3.20;;;;;;;;;;5056368;28;20029;-67
2022/02/17 07:56:02;;;;;;;14.45;2.70;;;;;;;;;;5055943;28;20025;-73
2022/02/17 07:58:28;;;;;;;10.68;2.53;;;;;;;;;;5059523;28;20037;-69
2022/02/17 08:00:55;;;;;;;14.18;2.50;;;;;;;;;;5075781;28;20040;-66
2022/02/17 08:03:21;;;;;;;9.57;2.60;;;;;;;;;;5075906;28;20021;-65
2022/02/17 08:05:47;;;;;;;8.55;2.30;;;;;;;;;;5075189;28;20055;-74
2022/02/17 08:08:13;;;;;;;9.32;2.40;;;;;;;;;;5075715;28;20027;-75
2022/02/17 08:10:40;;;;;;;13.35;2.72;;;;;;;;;;5075677;28;20033;-74
2022/02/17 08:13:06;;;;;;;11.77;2.60;;;;;;;;;;5067364;28;20021;-74
2022/02/17 08:15:33;;;;;;;12.40;2.78;;;;;;;;;;5065900;28;20492;-74
2022/02/17 08:17:59;;;;;;;16.88;2.85;;;;;;;;;;5053115;28;20044;-75
2022/02/17 08:20:25;;;;;;;10.07;2.65;;;;;;;;;;5025070;28;20033;-68
2022/02/17 08:22:53;;;;;;;10.73;2.83;;;;;;;;;;5049765;28;20068;-78
2022/02/17 08:25:22;;;;;;;10.85;2.63;;;;;;;;;;5049256;28;20025;-73
2022/02/17 08:27:49;;;;;;;11.38;2.95;;;;;;;;;;5017942;28;20030;-68
2022/02/17 08:30:15;;;;;;;16.63;2.85;;;;;;;;;;5043946;28;20033;-73
2022/02/17 08:32:41;;;;;;;15.05;3.20;;;;;;;;;;5073650;28;20025;-69
2022/02/17 08:35:10;;;;;;;35.38;3.08;;;;;;;;;;5057078;28;20108;-71
2022/02/17 08:37:36;;;;;;;13.93;2.90;;;;;;;;;;5075367;28;20064;-75
2022/02/17 08:40:06;;;;;;;10.63;2.22;;;;;;;;;;5055657;28;20031;-70
2022/02/17 08:42:32;;;;;;;7.72;2.40;;;;;;;;;;5055529;28;20032;-68
2022/02/17 08:44:58;;;;;;;13.23;2.90;;;;;;;;;;5054827;28;20025;-71
2022/02/17 08:47:24;;;;;;;9.85;2.60;;;;;;;;;;5055376;28;20090;-69
2022/02/17 08:49:50;;;;;;;11.45;2.92;;;;;;;;;;5055007;28;20415;-72
2022/02/17 08:52:16;;;;;;;12.43;2.33;;;;;;;;;;5054593;28;20407;-67
2022/02/17 08:54:42;;;;;;;13.68;2.20;;;;;;;;;;5037202;28;20387;-64
2022/02/17 08:57:09;;;;;;;10.68;2.40;;;;;;;;;;5037861;28;20025;-71
2022/02/17 08:59:35;;;;;;;11.18;2.47;;;;;;;;;;5054473;28;20044;-63
2022/02/17 09:02:01;;;;;;;13.07;2.50;;;;;;;;;;5053593;28;20021;-72
2022/02/17 09:04:28;;;;;;;11.90;2.40;;;;;;;;;;5061881;28;20027;-63
2022/02/17 09:06:54;;;;;;;17.20;3.33;;;;;;;;;;5058197;28;20048;-65
2022/02/17 09:09:20;;;;;;;13.75;2.83;;;;;;;;;;5074832;28;20058;-63
2022/02/17 09:11:48;;;;;;;9.70;2.38;;;;;;;;;;5074452;28;20028;-63
2022/02/17 09:14:14;;;;;;;18.63;2.85;;;;;;;;;;5074730;28;20028;-64
2022/02/17 09:16:40;;;;;;;12.18;2.78;;;;;;;;;;5073317;28;20086;-63
2022/02/17 09:19:06;;;;;;;9.57;2.80;;;;;;;;;;5074143;28;20034;-67
2022/02/17 09:21:32;;;;;;;10.80;2.33;;;;;;;;;;5062170;28;20028;-63
2022/02/17 09:23:58;;;;;;;18.45;3.10;;;;;;;;;;5071239;28;20525;-62
2022/02/17 09:26:24;;;;;;;11.57;2.45;;;;;;;;;;5036238;28;20020;-69
2022/02/17 09:28:51;;;;;;;10.38;2.50;;;;;;;;;;5053982;28;20075;-69
2022/02/17 09:31:22;;;;;;;11.95;2.60;;;;;;;;;;5039354;28;20155;-64
2022/02/17 09:33:49;;;;;;;10.23;2.40;;;;;;;;;;5073472;28;20491;-67
2022/02/17 09:36:16;;;;;;;10.38;2.17;;;;;;;;;;5073488;28;20451;-65
2022/02/17 09:38:42;;;;;;;14.68;2.97;;;;;;;;;;5073889;28;20424;-71
2022/02/17 09:41:14;;;;;;;16.92;2.50;;;;;;;;;;5055944;28;20545;-71
2022/02/17 09:43:40;;;;;;;14.90;3.30;;;;;;;;;;5073558;28;20107;-68
2022/02/17 09:46:06;;;;;;;13.68;2.63;;;;;;;;;;5072947;28;20051;-65
2022/02/17 09:48:33;;;;;;;23.45;3.05;;;;;;;;;;5047872;28;20060;-70
2022/02/17 09:50:59;;;;;;;21.08;3.38;;;;;;;;;;5057928;28;20033;-68
2022/02/17 09:53:25;;;;;;;14.18;2.80;;;;;;;;;;5033570;28;20056;-69
2022/02/17 09:55:51;;;;;;;23.63;2.83;;;;;;;;;;5033708;28;20084;-67
2022/02/17 09:58:17;;;;;;;18.52;3.70;;;;;;;;;;5015232;28;20038;-70
2022/02/17 10:00:45;;;;;;;19.83;3.60;;;;;;;;;;5016249;28;20060;-66
2022/02/17 10:03:24;;;;;;;17.08;3.58;;;;;;;;;;5036422;28;20022;-70
2022/02/17 10:06:06;;;;;;;12.82;2.47;;;;;;;;;;5033959;28;20029;-71
2022/02/17 10:08:32;;;;;;;21.63;3.03;;;;;;;;;;5050284;28;20037;-69
2022/02/17 10:10:58;;;;;;;18.65;3.75;;;;;;;;;;5044225;28;20029;-69
2022/02/17 10:13:24;;;;;;;18.25;3.60;;;;;;;;;;5038924;28;20062;-70
2022/02/17 10:15:54;;;;;;;15.95;3.10;;;;;;;;;;5042733;28;20037;-71
2022/02/17 10:18:27;;;;;;;16.48;2.80;;;;;;;;;;5044329;28;20037;-69
2022/02/17 10:20:53;;;;;;;;;;;;;;;;;;5041961;28;20175;-70
2022/02/17 10:23:23;;;;;;;15.57;3.08;;;;;;;;;;5032008;28;20370;-68
2022/02/17 10:25:58;;;;;;;12.10;2.85;;;;;;;;;;5052698;28;20074;-71
2022/02/17 10:28:25;;;;;;;14.18;2.72;;;;;;;;;;5045702;28;20457;-71
2022/02/17 10:30:51;;;;;;;18.63;2.90;;;;;;;;;;5021430;28;20029;-71
2022/02/17 10:33:17;;;;;;;15.38;2.97;;;;;;;;;;5042478;28;20021;-72
2022/02/17 10:35:54;;;;;;;13.65;2.63;;;;;;;;;;5053303;28;20025;-72
2022/02/17 10:38:22;;;;;;;12.23;2.70;;;;;;;;;;5045527;28;20076;-73
2022/02/17 10:40:54;;;;;;;16.38;2.58;;;;;;;;;;5052820;28;20033;-67
2022/02/17 10:43:19;;;;;;;15.43;2.97;;;;;;;;;;5032207;28;20024;-65
2022/02/17 10:45:47;;;;;;;12.68;2.85;;;;;;;;;;5035393;28;20025;-71
2022/02/17 10:48:13;;;;;;;19.05;3.10;;;;;;;;;;5053017;28;20356;-73
2022/02/17 10:50:39;;;;;;;10.13;2.50;;;;;;;;;;5052914;28;20033;-72
2022/02/17 10:53:15;;;;;;;17.80;2.72;;;;;;;;;;5049396;28;20568;-72
2022/02/17 10:55:50;;;;;;;16.00;3.65;;;;;;;;;;5041179;28;20032;-70
2022/02/17 10:58:16;;;;;;;10.30;3.00;;;;;;;;;;5047410;28;20519;-64
2022/02/17 11:00:43;;;;;;;17.50;3.22;;;;;;;;;;5044943;28;20303;-74
2022/02/17 11:03:09;;;;;;;18.00;3.15;;;;;;;;;;5023745;28;20021;-66
2022/02/17 11:05:38;;;;;;;18.05;3.15;;;;;;;;;;5034641;28;20029;-72
2022/02/17 11:08:06;;;;;;;14.10;2.90;;;;;;;;;;5035798;28;20021;-71
2022/02/17 11:10:32;;;;;;;12.30;2.55;;;;;;;;;;5052901;28;20025;-76
2022/02/17 11:12:58;;;;;;;13.90;2.42;;;;;;;;;;5052724;28;20029;-71
2022/02/17 11:15:25;;;;;;;11.57;2.70;;;;;;;;;;5052676;28;20029;-69
2022/02/17 11:17:51;;;;;;;15.90;3.22;;;;;;;;;;5042677;28;20045;-73
2022/02/17 11:20:20;;;;;;;13.93;2.90;;;;;;;;;;5034105;28;20026;-70
2022/02/17 11:22:50;;;;;;;14.30;3.10;;;;;;;;;;5049682;28;20037;-68
2022/02/17 11:25:16;;;;;;;16.10;3.10;;;;;;;;;;5045407;28;20079;-68
2022/02/17 11:28:01;;;;;;;12.02;2.50;;;;;;;;;;5049240;28;20044;-68
2022/02/17 11:30:28;;;;;;;11.60;2.95;;;;;;;;;;5049572;28;20037;-71
2022/02/17 11:33:12;;;;;;;16.50;2.85;;;;;;;;;;5052715;28;20033;-69
2022/02/17 11:35:39;;;;;;;11.48;2.75;;;;;;;;;;5032035;28;20535;-72
2022/02/17 11:38:25;;;;;;;11.70;2.50;;;;;;;;;;5037378;28;20106;-76
2022/02/17 11:40:58;;;;;;;11.32;2.65;;;;;;;;;;5056426;28;20478;-72
2022/02/17 11:43:28;;;;;;;16.45;2.42;;;;;;;;;;5031625;28;20025;-72
2022/02/17 11:45:54;;;;;;;16.15;2.95;;;;;;;;;;5041992;28;20018;-67
2022/02/17 11:48:32;;;;;;;13.77;2.85;;;;;;;;;;5035694;28;20029;-67
2022/02/17 11:51:10;;;;;;;16.67;2.92;;;;;;;;;;5035296;28;20029;-68
2022/02/17 11:53:37;;;;;;;14.23;2.72;;;;;;;;;;5035877;28;20476;-68
2022/02/17 11:56:07;;;;;;;13.18;2.58;;;;;;;;;;5035788;28;20029;-70
2022/02/17 11:58:39;;;;;;;16.80;2.83;;;;;;;;;;5035851;28;20108;-66
2022/02/17 12:01:26;;;;;;;16.33;3.03;;;;;;;;;;5035600;28;20100;-73
2022/02/17 12:03:55;;;;;;;18.90;3.05;;;;;;;;;;5035686;28;20168;-65
2022/02/17 12:06:38;;;;;;;14.00;2.95;;;;;;;;;;5036003;28;20021;-72
2022/02/17 12:09:04;;;;;;;17.08;3.35;;;;;;;;;;5036194;28;20021;-74
2022/02/17 12:11:38;;;;;;;18.25;3.20;;;;;;;;;;5035809;28;20465;-67
2022/02/17 12:14:05;;;;;;;16.73;2.85;;;;;;;;;;5054376;28;20402;-73
2022/02/17 12:16:35;;;;;;;15.57;3.63;;;;;;;;;;5075815;28;20021;-75
2022/02/17 12:19:08;;;;;;;16.95;2.88;;;;;;;;;;5075728;28;20032;-73
2022/02/17 12:21:36;;;;;;;18.13;2.97;;;;;;;;;;5072120;28;20020;-73
2022/02/17 12:24:02;;;;;;;10.10;2.88;;;;;;;;;;5075867;28;20430;-73
2022/02/17 12:26:41;;;;;;;17.25;2.95;;;;;;;;;;5042545;28;20701;-69
2022/02/17 12:29:25;;;;;;;18.02;2.90;;;;;;;;;;5055320;28;20032;-69
2022/02/17 12:31:52;;;;;;;12.45;2.90;;;;;;;;;;5046813;28;20043;-67
2022/02/17 12:34:18;;;;;;;17.70;3.30;;;;;;;;;;5028730;28;20029;-70
2022/02/17 12:36:44;;;;;;;16.25;3.30;;;;;;;;;;5054356;28;20127;-73
2022/02/17 12:39:10;;;;;;;18.30;3.20;;;;;;;;;;5055358;28;20032;-68
2022/02/17 12:41:36;;;;;;;18.67;3.58;;;;;;;;;;5042915;28;20022;-73
2022/02/17 12:44:02;;;;;;;12.23;2.83;;;;;;;;;;5053681;28;20112;-72
2022/02/17 12:46:28;;;;;;;19.02;3.30;;;;;;;;;;5023413;28;20051;-70
2022/02/17 12:48:54;;;;;;;21.15;4.55;;;;;;;;;;5048775;28;20067;-68
2022/02/17 12:51:24;;;;;;;22.45;3.60;;;;;;;;;;5025771;28;20048;-70
2022/02/17 12:53:52;;;;;;;12.90;3.10;;;;;;;;;;5042382;28;20051;-68
2022/02/17 12:56:24;;;;;;;14.07;3.42;;;;;;;;;;5047356;28;20036;-70
2022/02/17 12:58:50;;;;;;;15.73;3.35;;;;;;;;;;5025412;28;20116;-72
2022/02/17 13:01:26;;;;;;;20.45;4.15;;;;;;;;;;5033749;28;20539;-71
2022/02/17 13:03:53;;;;;;;15.05;3.75;;;;;;;;;;5047620;28;20524;-70
2022/02/17 13:06:22;;;;;;;19.92;4.03;;;;;;;;;;5042618;28;20028;-72
2022/02/17 13:08:50;;;;;;;22.83;3.85;;;;;;;;;;5037574;28;20108;-71
2022/02/17 13:11:17;;;;;;;22.27;4.22;;;;;;;;;;5043919;28;20541;-70
2022/02/17 13:13:43;;;;;;;18.80;4.47;;;;;;;;;;5043243;28;20029;-71
2022/02/17 13:16:09;;;;;;;21.27;3.40;;;;;;;;;;5043193;28;20152;-70
2022/02/17 13:18:36;;;;;;;14.73;3.45;;;;;;;;;;5044012;28;20108;-71
2022/02/17 13:21:22;;;;;;;23.10;3.65;;;;;;;;;;5048403;28;20033;-70
2022/02/17 13:23:49;;;;;;;14.32;2.90;;;;;;;;;;5054353;28;20028;-68
2022/02/17 13:26:24;;;;;;;13.75;3.30;;;;;;;;;;5043353;28;20138;-72
2022/02/17 13:28:51;;;;;;;17.55;3.03;;;;;;;;;;5038959;28;20010;-71
2022/02/17 13:31:21;;;;;;;9.90;2.25;;;;;;;;;;5047445;28;20040;-73
2022/02/17 13:33:48;;;;;;;14.45;3.58;;;;;;;;;;5045734;28;20108;-73
2022/02/17 13:36:24;;;;;;;9.27;1.90;;;;;;;;;;5038340;28;20025;-73
2022/02/17 13:39:10;;;;;;;9.25;2.67;;;;;;;;;;5025656;28;21073;-67
2022/02/17 13:41:42;;;;;;;12.77;2.33;;;;;;;;;;5044286;28;20036;-67
2022/02/17 13:44:09;;;;;;;23.42;3.08;;;;;;;;;;5046976;28;20151;-70
2022/02/17 13:46:48;;;;;;;8.02;1.92;;;;;;;;;;5042572;28;20021;-68
2022/02/17 13:49:19;;;;;;;11.70;2.72;;;;;;;;;;5042244;28;20024;-71
2022/02/17 13:51:45;;;;;;;15.10;2.50;;;;;;;;;;5043679;28;20035;-72
2022/02/17 13:54:12;;;;;;;9.52;2.40;;;;;;;;;;5043925;28;20025;-72
2022/02/17 13:56:38;;;;;;;9.05;2.28;;;;;;;;;;5051024;28;20025;-72
2022/02/17 13:59:04;;;;;;;10.32;2.25;;;;;;;;;;5042319;28;20051;-71
2022/02/17 14:01:37;;;;;;;12.02;2.03;;;;;;;;;;5036036;28;20044;-67
2022/02/17 14:04:25;;;;;;;7.88;2.08;;;;;;;;;;5046006;28;20025;-71
2022/02/17 14:06:54;;;;;;;11.27;2.03;;;;;;;;;;5047476;28;20025;-72
2022/02/17 14:09:19;;;;;;;16.02;2.35;;;;;;;;;;5036855;28;20523;-71
2022/02/17 14:11:45;;;;;;;12.23;2.38;;;;;;;;;;5040360;28;20036;-71
2022/02/17 14:14:11;;;;;;;8.73;1.92;;;;;;;;;;5050734;28;20059;-71
2022/02/17 14:16:50;;;;;;;8.55;1.92;;;;;;;;;;5057826;28;20067;-72
2022/02/17 14:19:17;;;;;;;10.68;2.00;;;;;;;;;;5046056;28;20033;-70
2022/02/17 14:21:43;;;;;;;13.50;2.40;;;;;;;;;;5040712;28;20037;-73
2022/02/17 14:24:09;;;;;;;14.43;2.20;;;;;;;;;;5052594;28;20024;-71
2022/02/17 14:26:35;;;;;;;14.20;2.08;;;;;;;;;;5035309;28;20108;-73
2022/02/17 14:29:02;;;;;;;13.13;2.03;;;;;;;;;;5041323;28;20035;-72
2022/02/17 14:31:28;;;;;;;11.07;2.30;;;;;;;;;;5019456;28;20056;-71
2022/02/17 14:33:54;;;;;;;7.32;1.77;;;;;;;;;;5039771;28;20016;-73
2022/02/17 14:36:20;;;;;;;13.27;2.58;;;;;;;;;;5054289;28;20051;-71